Terminal Aerodrome Forecast
Issued by NWS Shreveport, LA

Home | Current Version | Previous Version | Text Only | Print | Product List | Glossary On
Versions: 1 2 3 4 5 6 7 8 9 10 11 12 13 14
000
FTUS44 KSHV 031139
TAFLFK
TAF
KLFK 031139Z 0312/0412 VRB03KT P6SM BKN007
     FM031400 15005KT P6SM SCT015 SCT250
     FM031800 14006KT P6SM SCT050 SCT250
     FM040200 14004KT P6SM SCT250
     FM040900 14004KT P6SM BKN015=

USA.gov is the U.S. government's official web portal to all federal, state and local government web resources and services.